sensor_id;sensor_type;location;lat;lon;timestamp;P1;durP1;ratioP1;P2;durP2;ratioP2
8017;SDS011;4054;52.666;4.770;2023-05-07T00:00:23;79.13;;;71.65;;
8017;SDS011;4054;52.666;4.770;2023-05-07T00:00:57;80.03;;;72.50;;
8017;SDS011;4054;52.666;4.770;2023-05-07T00:01:31;79.45;;;71.60;;
8017;SDS011;4054;52.666;4.770;2023-05-07T00:02:03;78.20;;;70.95;;
8017;SDS011;4054;52.666;4.770;2023-05-07T00:02:36;78.65;;;71.00;;
8017;SDS011;4054;52.666;4.770;2023-05-07T00:03:09;78.40;;;70.82;;
8017;SDS011;4054;52.666;4.770;2023-05-07T00:03:42;77.93;;;70.63;;
8017;SDS011;4054;52.666;4.770;2023-05-07T00:04:15;79.88;;;72.30;;
8017;SDS011;4054;52.666;4.770;2023-05-07T00:04:47;79.18;;;71.68;;
8017;SDS011;4054;52.666;4.770;2023-05-07T00:05:20;79.03;;;71.65;;
8017;SDS011;4054;52.666;4.770;2023-05-07T00:05:52;78.05;;;70.70;;
8017;SDS011;4054;52.666;4.770;2023-05-07T00:06:24;78.95;;;71.32;;
8017;SDS011;4054;52.666;4.770;2023-05-07T00:06:58;80.13;;;72.05;;
8017;SDS011;4054;52.666;4.770;2023-05-07T00:07:30;78.95;;;71.68;;
8017;SDS011;4054;52.666;4.770;2023-05-07T00:08:02;78.28;;;70.90;;
8017;SDS011;4054;52.666;4.770;2023-05-07T00:08:35;77.75;;;70.25;;
8017;SDS011;4054;52.666;4.770;2023-05-07T00:09:07;79.28;;;71.55;;
8017;SDS011;4054;52.666;4.770;2023-05-07T00:09:39;78.03;;;70.72;;
8017;SDS011;4054;52.666;4.770;2023-05-07T00:10:12;78.30;;;70.78;;
8017;SDS011;4054;52.666;4.770;2023-05-07T00:10:44;78.28;;;70.78;;
8017;SDS011;4054;52.666;4.770;2023-05-07T00:11:17;79.88;;;72.13;;
8017;SDS011;4054;52.666;4.770;2023-05-07T00:11:51;79.43;;;71.72;;
8017;SDS011;4054;52.666;4.770;2023-05-07T00:12:23;79.35;;;71.65;;
8017;SDS011;4054;52.666;4.770;2023-05-07T00:12:55;79.38;;;71.75;;
8017;SDS011;4054;52.666;4.770;2023-05-07T00:13:28;77.85;;;70.50;;
8017;SDS011;4054;52.666;4.770;2023-05-07T00:14:02;78.32;;;70.82;;
8017;SDS011;4054;52.666;4.770;2023-05-07T00:14:34;79.80;;;71.75;;
8017;SDS011;4054;52.666;4.770;2023-05-07T00:15:06;79.20;;;71.60;;
8017;SDS011;4054;52.666;4.770;2023-05-07T00:15:40;79.13;;;71.47;;
8017;SDS011;4054;52.666;4.770;2023-05-07T00:16:13;79.63;;;72.27;;
8017;SDS011;4054;52.666;4.770;2023-05-07T00:16:45;79.03;;;71.43;;
8017;SDS011;4054;52.666;4.770;2023-05-07T00:17:18;79.97;;;72.03;;
8017;SDS011;4054;52.666;4.770;2023-05-07T00:17:51;78.45;;;71.07;;
8017;SDS011;4054;52.666;4.770;2023-05-07T00:18:23;79.43;;;71.45;;
8017;SDS011;4054;52.666;4.770;2023-05-07T00:18:56;79.07;;;71.45;;
8017;SDS011;4054;52.666;4.770;2023-05-07T00:19:28;78.35;;;70.82;;
8017;SDS011;4054;52.666;4.770;2023-05-07T00:20:00;78.90;;;71.05;;
8017;SDS011;4054;52.666;4.770;2023-05-07T00:20:34;80.38;;;72.75;;
8017;SDS011;4054;52.666;4.770;2023-05-07T00:21:10;80.53;;;72.57;;
8017;SDS011;4054;52.666;4.770;2023-05-07T00:21:42;79.07;;;71.32;;
8017;SDS011;4054;52.666;4.770;2023-05-07T00:22:15;78.28;;;71.00;;
8017;SDS011;4054;52.666;4.770;2023-05-07T00:22:47;78.13;;;71.00;;
8017;SDS011;4054;52.666;4.770;2023-05-07T00:23:19;77.40;;;70.15;;
8017;SDS011;4054;52.666;4.770;2023-05-07T00:23:51;78.80;;;71.38;;
8017;SDS011;4054;52.666;4.770;2023-05-07T00:24:24;78.38;;;70.80;;
8017;SDS011;4054;52.666;4.770;2023-05-07T00:24:56;78.35;;;70.85;;
8017;SDS011;4054;52.666;4.770;2023-05-07T00:25:28;79.32;;;71.53;;
8017;SDS011;4054;52.666;4.770;2023-05-07T00:26:01;78.90;;;71.13;;
8017;SDS011;4054;52.666;4.770;2023-05-07T00:26:33;78.57;;;71.15;;
8017;SDS011;4054;52.666;4.770;2023-05-07T00:27:05;78.13;;;70.85;;
8017;SDS011;4054;52.666;4.770;2023-05-07T00:27:37;77.53;;;70.25;;
8017;SDS011;4054;52.666;4.770;2023-05-07T00:28:10;79.05;;;71.03;;
8017;SDS011;4054;52.666;4.770;2023-05-07T00:28:42;79.63;;;72.20;;
8017;SDS011;4054;52.666;4.770;2023-05-07T00:29:14;79.40;;;71.72;;
8017;SDS011;4054;52.666;4.770;2023-05-07T00:29:47;77.88;;;70.53;;
8017;SDS011;4054;52.666;4.770;2023-05-07T00:30:19;77.93;;;70.43;;
8017;SDS011;4054;52.666;4.770;2023-05-07T00:30:52;78.80;;;71.30;;
8017;SDS011;4054;52.666;4.770;2023-05-07T00:31:25;79.07;;;71.18;;
8017;SDS011;4054;52.666;4.770;2023-05-07T00:31:58;79.18;;;71.78;;
8017;SDS011;4054;52.666;4.770;2023-05-07T00:32:30;78.72;;;71.05;;
8017;SDS011;4054;52.666;4.770;2023-05-07T00:33:02;78.03;;;70.45;;
8017;SDS011;4054;52.666;4.770;2023-05-07T00:33:34;79.50;;;71.63;;
8017;SDS011;4054;52.666;4.770;2023-05-07T00:34:07;78.88;;;71.28;;
8017;SDS011;4054;52.666;4.770;2023-05-07T00:34:40;79.60;;;71.88;;
8017;SDS011;4054;52.666;4.770;2023-05-07T00:35:12;78.13;;;70.70;;
8017;SDS011;4054;52.666;4.770;2023-05-07T00:35:45;77.32;;;70.03;;
8017;SDS011;4054;52.666;4.770;2023-05-07T00:36:17;79.47;;;71.88;;
8017;SDS011;4054;52.666;4.770;2023-05-07T00:36:49;79.53;;;71.72;;
8017;SDS011;4054;52.666;4.770;2023-05-07T00:37:22;79.00;;;71.22;;
8017;SDS011;4054;52.666;4.770;2023-05-07T00:37:54;78.88;;;71.22;;
8017;SDS011;4054;52.666;4.770;2023-05-07T00:38:26;79.28;;;71.60;;
8017;SDS011;4054;52.666;4.770;2023-05-07T00:38:59;79.68;;;71.82;;
8017;SDS011;4054;52.666;4.770;2023-05-07T00:39:33;77.22;;;70.03;;
8017;SDS011;4054;52.666;4.770;2023-05-07T00:40:05;79.00;;;71.45;;
8017;SDS011;4054;52.666;4.770;2023-05-07T00:40:40;77.20;;;69.97;;
8017;SDS011;4054;52.666;4.770;2023-05-07T00:41:13;79.68;;;71.43;;
8017;SDS011;4054;52.666;4.770;2023-05-07T00:41:46;79.28;;;71.38;;
8017;SDS011;4054;52.666;4.770;2023-05-07T00:42:18;77.53;;;70.40;;
8017;SDS011;4054;52.666;4.770;2023-05-07T00:42:52;78.35;;;70.85;;
8017;SDS011;4054;52.666;4.770;2023-05-07T00:43:29;80.05;;;72.10;;
8017;SDS011;4054;52.666;4.770;2023-05-07T00:44:01;79.80;;;71.88;;
8017;SDS011;4054;52.666;4.770;2023-05-07T00:44:34;79.47;;;71.93;;
8017;SDS011;4054;52.666;4.770;2023-05-07T00:45:07;78.15;;;70.65;;
8017;SDS011;4054;52.666;4.770;2023-05-07T00:45:39;77.25;;;70.32;;
8017;SDS011;4054;52.666;4.770;2023-05-07T00:46:12;78.40;;;70.88;;
8017;SDS011;4054;52.666;4.770;2023-05-07T00:46:47;78.28;;;70.88;;
8017;SDS011;4054;52.666;4.770;2023-05-07T00:47:21;79.45;;;72.00;;
8017;SDS011;4054;52.666;4.770;2023-05-07T00:47:54;77.82;;;70.53;;
8017;SDS011;4054;52.666;4.770;2023-05-07T00:48:28;78.45;;;71.07;;
8017;SDS011;4054;52.666;4.770;2023-05-07T00:49:00;80.03;;;71.97;;
8017;SDS011;4054;52.666;4.770;2023-05-07T00:49:35;79.43;;;71.53;;
8017;SDS011;4054;52.666;4.770;2023-05-07T00:50:10;78.35;;;70.78;;
8017;SDS011;4054;52.666;4.770;2023-05-07T00:50:47;78.47;;;70.82;;
8017;SDS011;4054;52.666;4.770;2023-05-07T00:51:20;79.00;;;71.28;;
8017;SDS011;4054;52.666;4.770;2023-05-07T00:51:52;79.75;;;71.78;;
8017;SDS011;4054;52.666;4.770;2023-05-07T00:52:25;78.95;;;71.22;;
8017;SDS011;4054;52.666;4.770;2023-05-07T00:52:58;79.82;;;71.85;;
8017;SDS011;4054;52.666;4.770;2023-05-07T00:53:31;78.72;;;71.28;;
8017;SDS011;4054;52.666;4.770;2023-05-07T00:54:03;78.65;;;71.30;;
8017;SDS011;4054;52.666;4.770;2023-05-07T00:54:36;79.70;;;72.03;;
8017;SDS011;4054;52.666;4.770;2023-05-07T00:55:09;79.40;;;71.75;;
8017;SDS011;4054;52.666;4.770;2023-05-07T00:55:41;78.63;;;71.28;;
8017;SDS011;4054;52.666;4.770;2023-05-07T00:56:14;79.72;;;71.93;;
8017;SDS011;4054;52.666;4.770;2023-05-07T00:56:47;78.70;;;71.35;;
8017;SDS011;4054;52.666;4.770;2023-05-07T00:57:19;79.28;;;71.68;;
8017;SDS011;4054;52.666;4.770;2023-05-07T00:57:53;79.32;;;71.65;;
8017;SDS011;4054;52.666;4.770;2023-05-07T00:58:25;79.32;;;71.43;;
8017;SDS011;4054;52.666;4.770;2023-05-07T00:58:58;80.03;;;71.85;;
8017;SDS011;4054;52.666;4.770;2023-05-07T00:59:31;77.82;;;70.28;;
8017;SDS011;4054;52.666;4.770;2023-05-07T01:00:04;79.82;;;72.13;;
8017;SDS011;4054;52.666;4.770;2023-05-07T01:00:37;78.28;;;71.03;;
8017;SDS011;4054;52.666;4.770;2023-05-07T01:01:10;79.03;;;71.18;;
8017;SDS011;4054;52.666;4.770;2023-05-07T01:01:42;80.43;;;72.40;;
8017;SDS011;4054;52.666;4.770;2023-05-07T01:02:15;79.85;;;72.03;;
8017;SDS011;4054;52.666;4.770;2023-05-07T01:02:49;79.38;;;71.47;;
8017;SDS011;4054;52.666;4.770;2023-05-07T01:03:21;78.85;;;70.90;;
8017;SDS011;4054;52.666;4.770;2023-05-07T01:03:54;79.43;;;71.60;;
8017;SDS011;4054;52.666;4.770;2023-05-07T01:04:28;78.70;;;70.95;;
8017;SDS011;4054;52.666;4.770;2023-05-07T01:05:00;78.75;;;71.20;;
8017;SDS011;4054;52.666;4.770;2023-05-07T01:05:35;78.95;;;70.80;;
8017;SDS011;4054;52.666;4.770;2023-05-07T01:06:09;78.80;;;71.22;;
8017;SDS011;4054;52.666;4.770;2023-05-07T01:06:44;80.15;;;71.93;;
8017;SDS011;4054;52.666;4.770;2023-05-07T01:07:17;80.10;;;72.35;;
8017;SDS011;4054;52.666;4.770;2023-05-07T01:07:50;79.72;;;71.93;;
8017;SDS011;4054;52.666;4.770;2023-05-07T01:08:24;78.60;;;71.32;;
8017;SDS011;4054;52.666;4.770;2023-05-07T01:08:58;80.35;;;72.10;;
8017;SDS011;4054;52.666;4.770;2023-05-07T01:09:30;78.40;;;70.95;;
8017;SDS011;4054;52.666;4.770;2023-05-07T01:10:06;78.47;;;71.13;;
8017;SDS011;4054;52.666;4.770;2023-05-07T01:10:40;79.80;;;72.03;;
8017;SDS011;4054;52.666;4.770;2023-05-07T01:11:14;78.90;;;71.35;;
8017;SDS011;4054;52.666;4.770;2023-05-07T01:11:47;79.25;;;71.50;;
8017;SDS011;4054;52.666;4.770;2023-05-07T01:12:21;79.90;;;72.10;;
8017;SDS011;4054;52.666;4.770;2023-05-07T01:12:53;81.72;;;73.28;;
8017;SDS011;4054;52.666;4.770;2023-05-07T01:13:26;80.38;;;72.57;;
8017;SDS011;4054;52.666;4.770;2023-05-07T01:13:59;82.25;;;73.68;;
8017;SDS011;4054;52.666;4.770;2023-05-07T01:14:31;78.43;;;71.07;;
8017;SDS011;4054;52.666;4.770;2023-05-07T01:15:06;79.05;;;70.97;;
8017;SDS011;4054;52.666;4.770;2023-05-07T01:15:40;80.25;;;72.28;;
8017;SDS011;4054;52.666;4.770;2023-05-07T01:16:12;79.68;;;71.95;;
8017;SDS011;4054;52.666;4.770;2023-05-07T01:16:46;81.22;;;72.70;;
8017;SDS011;4054;52.666;4.770;2023-05-07T01:17:20;79.75;;;71.85;;
8017;SDS011;4054;52.666;4.770;2023-05-07T01:17:52;80.75;;;72.43;;
8017;SDS011;4054;52.666;4.770;2023-05-07T01:18:32;79.85;;;72.18;;
8017;SDS011;4054;52.666;4.770;2023-05-07T01:19:04;79.90;;;72.28;;
8017;SDS011;4054;52.666;4.770;2023-05-07T01:19:38;79.23;;;71.47;;
8017;SDS011;4054;52.666;4.770;2023-05-07T01:20:10;81.53;;;73.20;;
8017;SDS011;4054;52.666;4.770;2023-05-07T01:20:43;80.55;;;72.88;;
8017;SDS011;4054;52.666;4.770;2023-05-07T01:21:18;80.18;;;72.05;;
8017;SDS011;4054;52.666;4.770;2023-05-07T01:21:53;80.75;;;72.32;;
8017;SDS011;4054;52.666;4.770;2023-05-07T01:22:34;81.25;;;72.70;;
8017;SDS011;4054;52.666;4.770;2023-05-07T01:23:09;80.00;;;71.88;;
8017;SDS011;4054;52.666;4.770;2023-05-07T01:23:42;79.93;;;72.17;;
8017;SDS011;4054;52.666;4.770;2023-05-07T01:24:16;80.30;;;72.30;;
8017;SDS011;4054;52.666;4.770;2023-05-07T01:24:49;80.45;;;72.15;;
8017;SDS011;4054;52.666;4.770;2023-05-07T01:25:22;80.15;;;71.97;;
8017;SDS011;4054;52.666;4.770;2023-05-07T01:25:57;79.53;;;71.65;;
8017;SDS011;4054;52.666;4.770;2023-05-07T01:26:32;80.82;;;72.68;;
8017;SDS011;4054;52.666;4.770;2023-05-07T01:27:04;80.10;;;72.32;;
8017;SDS011;4054;52.666;4.770;2023-05-07T01:27:37;81.32;;;73.10;;
8017;SDS011;4054;52.666;4.770;2023-05-07T01:28:09;81.20;;;73.13;;
8017;SDS011;4054;52.666;4.770;2023-05-07T01:28:45;80.47;;;72.55;;
8017;SDS011;4054;52.666;4.770;2023-05-07T01:29:17;81.90;;;73.68;;
8017;SDS011;4054;52.666;4.770;2023-05-07T01:29:52;82.25;;;74.05;;
8017;SDS011;4054;52.666;4.770;2023-05-07T01:30:25;81.43;;;73.10;;
8017;SDS011;4054;52.666;4.770;2023-05-07T01:31:00;81.05;;;73.22;;
8017;SDS011;4054;52.666;4.770;2023-05-07T01:31:35;81.75;;;73.25;;
8017;SDS011;4054;52.666;4.770;2023-05-07T01:32:08;82.53;;;74.18;;
8017;SDS011;4054;52.666;4.770;2023-05-07T01:32:43;80.60;;;72.20;;
8017;SDS011;4054;52.666;4.770;2023-05-07T01:33:20;79.93;;;72.25;;
8017;SDS011;4054;52.666;4.770;2023-05-07T01:33:52;81.13;;;73.22;;
8017;SDS011;4054;52.666;4.770;2023-05-07T01:34:26;80.78;;;72.97;;
8017;SDS011;4054;52.666;4.770;2023-05-07T01:35:02;81.10;;;72.95;;
8017;SDS011;4054;52.666;4.770;2023-05-07T01:35:39;82.40;;;73.93;;
8017;SDS011;4054;52.666;4.770;2023-05-07T01:36:13;82.70;;;74.47;;
8017;SDS011;4054;52.666;4.770;2023-05-07T01:36:47;81.38;;;73.07;;
8017;SDS011;4054;52.666;4.770;2023-05-07T01:37:20;82.25;;;73.97;;
8017;SDS011;4054;52.666;4.770;2023-05-07T01:37:54;84.50;;;75.93;;
8017;SDS011;4054;52.666;4.770;2023-05-07T01:38:27;83.07;;;74.55;;
8017;SDS011;4054;52.666;4.770;2023-05-07T01:39:02;82.13;;;73.95;;
8017;SDS011;4054;52.666;4.770;2023-05-07T01:39:35;82.22;;;74.13;;
8017;SDS011;4054;52.666;4.770;2023-05-07T01:40:11;82.65;;;74.03;;
8017;SDS011;4054;52.666;4.770;2023-05-07T01:40:43;81.90;;;73.72;;
8017;SDS011;4054;52.666;4.770;2023-05-07T01:41:16;82.45;;;74.13;;
8017;SDS011;4054;52.666;4.770;2023-05-07T01:41:49;81.38;;;73.18;;
8017;SDS011;4054;52.666;4.770;2023-05-07T01:42:21;83.43;;;74.82;;
8017;SDS011;4054;52.666;4.770;2023-05-07T01:42:53;82.53;;;74.07;;
8017;SDS011;4054;52.666;4.770;2023-05-07T01:43:27;81.22;;;73.18;;
8017;SDS011;4054;52.666;4.770;2023-05-07T01:44:00;82.22;;;73.75;;
8017;SDS011;4054;52.666;4.770;2023-05-07T01:44:32;85.13;;;75.82;;
8017;SDS011;4054;52.666;4.770;2023-05-07T01:45:06;83.20;;;74.38;;
8017;SDS011;4054;52.666;4.770;2023-05-07T01:45:38;82.57;;;73.93;;
8017;SDS011;4054;52.666;4.770;2023-05-07T01:46:12;81.75;;;73.60;;
8017;SDS011;4054;52.666;4.770;2023-05-07T01:46:45;82.63;;;74.00;;
8017;SDS011;4054;52.666;4.770;2023-05-07T01:47:18;83.18;;;74.50;;
8017;SDS011;4054;52.666;4.770;2023-05-07T01:47:51;81.85;;;73.60;;
8017;SDS011;4054;52.666;4.770;2023-05-07T01:48:26;82.05;;;73.70;;
8017;SDS011;4054;52.666;4.770;2023-05-07T01:48:58;81.25;;;73.40;;
8017;SDS011;4054;52.666;4.770;2023-05-07T01:49:31;82.57;;;74.18;;
8017;SDS011;4054;52.666;4.770;2023-05-07T01:50:04;83.43;;;74.57;;
8017;SDS011;4054;52.666;4.770;2023-05-07T01:50:37;82.40;;;74.22;;
8017;SDS011;4054;52.666;4.770;2023-05-07T01:51:10;81.72;;;73.53;;
8017;SDS011;4054;52.666;4.770;2023-05-07T01:51:43;83.07;;;74.32;;
8017;SDS011;4054;52.666;4.770;2023-05-07T01:52:15;81.60;;;73.32;;
8017;SDS011;4054;52.666;4.770;2023-05-07T01:52:49;82.75;;;74.35;;
8017;SDS011;4054;52.666;4.770;2023-05-07T01:53:23;81.63;;;73.40;;
8017;SDS011;4054;52.666;4.770;2023-05-07T01:53:59;81.00;;;72.93;;
8017;SDS011;4054;52.666;4.770;2023-05-07T01:54:31;81.55;;;73.18;;
8017;SDS011;4054;52.666;4.770;2023-05-07T01:55:05;82.70;;;74.30;;
8017;SDS011;4054;52.666;4.770;2023-05-07T01:55:38;83.32;;;74.95;;
8017;SDS011;4054;52.666;4.770;2023-05-07T01:56:11;82.68;;;74.30;;
8017;SDS011;4054;52.666;4.770;2023-05-07T01:56:45;81.25;;;73.10;;
8017;SDS011;4054;52.666;4.770;2023-05-07T01:57:19;83.55;;;75.20;;
8017;SDS011;4054;52.666;4.770;2023-05-07T01:57:51;81.50;;;73.45;;
8017;SDS011;4054;52.666;4.770;2023-05-07T01:58:23;81.95;;;73.30;;
8017;SDS011;4054;52.666;4.770;2023-05-07T01:58:56;81.45;;;73.35;;
8017;SDS011;4054;52.666;4.770;2023-05-07T01:59:28;82.28;;;73.72;;
8017;SDS011;4054;52.666;4.770;2023-05-07T02:00:00;81.15;;;73.15;;
8017;SDS011;4054;52.666;4.770;2023-05-07T02:00:45;81.60;;;73.78;;
8017;SDS011;4054;52.666;4.770;2023-05-07T02:01:17;81.53;;;73.53;;
8017;SDS011;4054;52.666;4.770;2023-05-07T02:01:49;82.72;;;73.85;;
8017;SDS011;4054;52.666;4.770;2023-05-07T02:02:23;83.10;;;74.40;;
8017;SDS011;4054;52.666;4.770;2023-05-07T02:02:57;81.07;;;73.03;;
8017;SDS011;4054;52.666;4.770;2023-05-07T02:03:52;81.85;;;73.40;;
8017;SDS011;4054;52.666;4.770;2023-05-07T02:04:29;82.35;;;73.78;;
8017;SDS011;4054;52.666;4.770;2023-05-07T02:05:01;83.68;;;74.97;;
8017;SDS011;4054;52.666;4.770;2023-05-07T02:05:33;83.85;;;75.13;;
8017;SDS011;4054;52.666;4.770;2023-05-07T02:06:16;80.57;;;72.68;;
8017;SDS011;4054;52.666;4.770;2023-05-07T02:06:48;83.53;;;74.85;;
8017;SDS011;4054;52.666;4.770;2023-05-07T02:07:20;84.65;;;75.70;;
8017;SDS011;4054;52.666;4.770;2023-05-07T02:07:53;84.63;;;75.40;;
8017;SDS011;4054;52.666;4.770;2023-05-07T02:08:27;82.60;;;74.32;;
8017;SDS011;4054;52.666;4.770;2023-05-07T02:09:00;83.90;;;75.13;;
8017;SDS011;4054;52.666;4.770;2023-05-07T02:09:33;84.28;;;75.60;;
8017;SDS011;4054;52.666;4.770;2023-05-07T02:10:05;84.15;;;75.30;;
8017;SDS011;4054;52.666;4.770;2023-05-07T02:10:38;84.50;;;75.65;;
8017;SDS011;4054;52.666;4.770;2023-05-07T02:11:11;85.88;;;76.75;;
8017;SDS011;4054;52.666;4.770;2023-05-07T02:11:44;84.45;;;75.38;;
8017;SDS011;4054;52.666;4.770;2023-05-07T02:12:17;84.07;;;75.13;;
8017;SDS011;4054;52.666;4.770;2023-05-07T02:12:50;83.35;;;74.28;;
8017;SDS011;4054;52.666;4.770;2023-05-07T02:13:22;83.57;;;74.95;;
8017;SDS011;4054;52.666;4.770;2023-05-07T02:13:55;84.50;;;75.77;;
8017;SDS011;4054;52.666;4.770;2023-05-07T02:14:28;84.43;;;75.33;;
8017;SDS011;4054;52.666;4.770;2023-05-07T02:15:00;84.75;;;75.53;;
8017;SDS011;4054;52.666;4.770;2023-05-07T02:15:32;84.38;;;75.43;;
8017;SDS011;4054;52.666;4.770;2023-05-07T02:16:07;85.55;;;76.53;;
8017;SDS011;4054;52.666;4.770;2023-05-07T02:16:39;83.53;;;75.10;;
8017;SDS011;4054;52.666;4.770;2023-05-07T02:17:11;83.93;;;75.25;;
8017;SDS011;4054;52.666;4.770;2023-05-07T02:17:57;84.28;;;75.47;;
8017;SDS011;4054;52.666;4.770;2023-05-07T02:18:31;84.65;;;76.18;;
8017;SDS011;4054;52.666;4.770;2023-05-07T02:19:04;83.65;;;74.72;;
8017;SDS011;4054;52.666;4.770;2023-05-07T02:19:36;84.40;;;75.80;;
8017;SDS011;4054;52.666;4.770;2023-05-07T02:20:08;83.85;;;74.88;;
8017;SDS011;4054;52.666;4.770;2023-05-07T02:20:45;84.93;;;75.75;;
8017;SDS011;4054;52.666;4.770;2023-05-07T02:21:17;85.15;;;76.13;;
8017;SDS011;4054;52.666;4.770;2023-05-07T02:21:49;83.45;;;74.82;;
8017;SDS011;4054;52.666;4.770;2023-05-07T02:22:24;81.97;;;73.53;;
8017;SDS011;4054;52.666;4.770;2023-05-07T02:22:56;84.38;;;75.85;;
8017;SDS011;4054;52.666;4.770;2023-05-07T02:23:32;86.53;;;77.15;;
8017;SDS011;4054;52.666;4.770;2023-05-07T02:24:11;83.13;;;74.65;;
8017;SDS011;4054;52.666;4.770;2023-05-07T02:24:44;84.00;;;75.35;;
8017;SDS011;4054;52.666;4.770;2023-05-07T02:25:16;85.28;;;76.50;;
8017;SDS011;4054;52.666;4.770;2023-05-07T02:25:48;81.80;;;73.78;;
8017;SDS011;4054;52.666;4.770;2023-05-07T02:26:21;84.53;;;76.18;;
8017;SDS011;4054;52.666;4.770;2023-05-07T02:26:53;83.13;;;74.72;;
8017;SDS011;4054;52.666;4.770;2023-05-07T02:27:25;83.30;;;74.53;;
8017;SDS011;4054;52.666;4.770;2023-05-07T02:27:57;83.47;;;74.60;;
8017;SDS011;4054;52.666;4.770;2023-05-07T02:28:43;82.15;;;73.80;;
8017;SDS011;4054;52.666;4.770;2023-05-07T02:29:15;83.50;;;74.95;;
8017;SDS011;4054;52.666;4.770;2023-05-07T02:29:47;83.53;;;74.88;;
8017;SDS011;4054;52.666;4.770;2023-05-07T02:30:20;83.97;;;75.38;;
8017;SDS011;4054;52.666;4.770;2023-05-07T02:30:56;81.85;;;73.85;;
8017;SDS011;4054;52.666;4.770;2023-05-07T02:31:30;84.63;;;75.72;;
8017;SDS011;4054;52.666;4.770;2023-05-07T02:32:05;84.22;;;75.45;;
8017;SDS011;4054;52.666;4.770;2023-05-07T02:32:37;82.85;;;74.47;;
8017;SDS011;4054;52.666;4.770;2023-05-07T02:33:09;81.65;;;73.57;;
8017;SDS011;4054;52.666;4.770;2023-05-07T02:33:44;82.35;;;74.18;;
8017;SDS011;4054;52.666;4.770;2023-05-07T02:34:17;81.57;;;73.28;;
8017;SDS011;4054;52.666;4.770;2023-05-07T02:34:50;82.32;;;73.82;;
8017;SDS011;4054;52.666;4.770;2023-05-07T02:35:23;82.63;;;74.28;;
8017;SDS011;4054;52.666;4.770;2023-05-07T02:35:56;82.05;;;74.05;;
8017;SDS011;4054;52.666;4.770;2023-05-07T02:36:28;83.28;;;74.43;;
8017;SDS011;4054;52.666;4.770;2023-05-07T02:37:07;82.78;;;74.25;;
8017;SDS011;4054;52.666;4.770;2023-05-07T02:37:39;82.55;;;74.32;;
8017;SDS011;4054;52.666;4.770;2023-05-07T02:38:11;84.32;;;75.30;;
8017;SDS011;4054;52.666;4.770;2023-05-07T02:38:45;82.45;;;73.82;;
8017;SDS011;4054;52.666;4.770;2023-05-07T02:39:18;82.10;;;73.72;;
8017;SDS011;4054;52.666;4.770;2023-05-07T02:39:50;83.88;;;75.15;;
8017;SDS011;4054;52.666;4.770;2023-05-07T02:40:22;82.25;;;73.68;;
8017;SDS011;4054;52.666;4.770;2023-05-07T02:40:55;82.40;;;74.20;;
8017;SDS011;4054;52.666;4.770;2023-05-07T02:41:27;80.28;;;72.40;;
8017;SDS011;4054;52.666;4.770;2023-05-07T02:41:59;83.07;;;74.65;;
8017;SDS011;4054;52.666;4.770;2023-05-07T02:42:32;83.20;;;74.90;;
8017;SDS011;4054;52.666;4.770;2023-05-07T02:43:05;80.95;;;72.90;;
8017;SDS011;4054;52.666;4.770;2023-05-07T02:43:37;81.32;;;73.38;;
8017;SDS011;4054;52.666;4.770;2023-05-07T02:44:10;80.90;;;72.68;;
8017;SDS011;4054;52.666;4.770;2023-05-07T02:44:42;82.75;;;73.97;;
8017;SDS011;4054;52.666;4.770;2023-05-07T02:45:14;81.97;;;73.60;;
8017;SDS011;4054;52.666;4.770;2023-05-07T02:45:48;81.25;;;73.10;;
8017;SDS011;4054;52.666;4.770;2023-05-07T02:46:20;82.45;;;74.13;;
8017;SDS011;4054;52.666;4.770;2023-05-07T02:47:00;83.35;;;75.13;;
8017;SDS011;4054;52.666;4.770;2023-05-07T02:47:33;81.80;;;73.57;;
8017;SDS011;4054;52.666;4.770;2023-05-07T02:48:06;81.30;;;73.32;;
8017;SDS011;4054;52.666;4.770;2023-05-07T02:48:38;81.47;;;73.15;;
8017;SDS011;4054;52.666;4.770;2023-05-07T02:49:11;82.75;;;74.07;;
8017;SDS011;4054;52.666;4.770;2023-05-07T02:49:43;81.63;;;73.50;;
8017;SDS011;4054;52.666;4.770;2023-05-07T02:50:15;80.75;;;72.68;;
8017;SDS011;4054;52.666;4.770;2023-05-07T02:50:47;83.45;;;75.03;;
8017;SDS011;4054;52.666;4.770;2023-05-07T02:51:21;81.82;;;73.45;;
8017;SDS011;4054;52.666;4.770;2023-05-07T02:51:58;80.95;;;72.90;;
8017;SDS011;4054;52.666;4.770;2023-05-07T02:52:30;81.22;;;73.30;;
8017;SDS011;4054;52.666;4.770;2023-05-07T02:53:04;81.70;;;73.28;;
8017;SDS011;4054;52.666;4.770;2023-05-07T02:53:37;80.93;;;72.88;;
8017;SDS011;4054;52.666;4.770;2023-05-07T02:54:10;82.47;;;74.13;;
8017;SDS011;4054;52.666;4.770;2023-05-07T02:54:43;82.00;;;73.68;;
8017;SDS011;4054;52.666;4.770;2023-05-07T02:55:15;81.13;;;73.13;;
8017;SDS011;4054;52.666;4.770;2023-05-07T02:55:47;81.95;;;73.82;;
8017;SDS011;4054;52.666;4.770;2023-05-07T02:56:19;81.25;;;73.15;;
8017;SDS011;4054;52.666;4.770;2023-05-07T02:56:52;81.68;;;73.53;;
8017;SDS011;4054;52.666;4.770;2023-05-07T02:57:24;79.78;;;72.40;;
8017;SDS011;4054;52.666;4.770;2023-05-07T02:57:56;81.47;;;73.43;;
8017;SDS011;4054;52.666;4.770;2023-05-07T02:58:30;80.95;;;72.75;;
8017;SDS011;4054;52.666;4.770;2023-05-07T02:59:03;80.05;;;72.38;;
8017;SDS011;4054;52.666;4.770;2023-05-07T02:59:39;80.35;;;72.47;;
8017;SDS011;4054;52.666;4.770;2023-05-07T03:00:13;81.97;;;73.60;;
8017;SDS011;4054;52.666;4.770;2023-05-07T03:00:55;79.68;;;71.82;;
8017;SDS011;4054;52.666;4.770;2023-05-07T03:01:35;80.50;;;72.38;;
8017;SDS011;4054;52.666;4.770;2023-05-07T03:02:11;80.38;;;72.57;;
8017;SDS011;4054;52.666;4.770;2023-05-07T03:02:43;80.43;;;72.20;;
8017;SDS011;4054;52.666;4.770;2023-05-07T03:03:15;81.38;;;73.43;;
8017;SDS011;4054;52.666;4.770;2023-05-07T03:03:51;79.97;;;72.30;;
8017;SDS011;4054;52.666;4.770;2023-05-07T03:04:23;79.28;;;71.70;;
8017;SDS011;4054;52.666;4.770;2023-05-07T03:04:55;80.63;;;72.45;;
8017;SDS011;4054;52.666;4.770;2023-05-07T03:05:28;80.13;;;72.22;;
8017;SDS011;4054;52.666;4.770;2023-05-07T03:06:00;79.40;;;72.15;;
8017;SDS011;4054;52.666;4.770;2023-05-07T03:06:32;79.78;;;72.28;;
8017;SDS011;4054;52.666;4.770;2023-05-07T03:07:05;78.85;;;71.18;;
8017;SDS011;4054;52.666;4.770;2023-05-07T03:07:37;79.20;;;71.07;;
8017;SDS011;4054;52.666;4.770;2023-05-07T03:08:09;78.63;;;71.18;;
8017;SDS011;4054;52.666;4.770;2023-05-07T03:08:46;80.53;;;72.55;;
8017;SDS011;4054;52.666;4.770;2023-05-07T03:09:19;80.82;;;72.85;;
8017;SDS011;4054;52.666;4.770;2023-05-07T03:09:51;79.95;;;71.88;;
8017;SDS011;4054;52.666;4.770;2023-05-07T03:10:24;81.30;;;73.25;;
8017;SDS011;4054;52.666;4.770;2023-05-07T03:10:57;79.80;;;72.43;;
8017;SDS011;4054;52.666;4.770;2023-05-07T03:11:30;80.35;;;72.50;;
8017;SDS011;4054;52.666;4.770;2023-05-07T03:12:02;80.53;;;72.72;;
8017;SDS011;4054;52.666;4.770;2023-05-07T03:12:35;79.85;;;72.05;;
8017;SDS011;4054;52.666;4.770;2023-05-07T03:13:07;79.72;;;71.97;;
8017;SDS011;4054;52.666;4.770;2023-05-07T03:13:39;81.45;;;73.28;;
8017;SDS011;4054;52.666;4.770;2023-05-07T03:14:12;80.85;;;72.97;;
8017;SDS011;4054;52.666;4.770;2023-05-07T03:14:44;81.32;;;73.10;;
8017;SDS011;4054;52.666;4.770;2023-05-07T03:15:16;80.20;;;72.65;;
8017;SDS011;4054;52.666;4.770;2023-05-07T03:15:49;80.10;;;72.53;;
8017;SDS011;4054;52.666;4.770;2023-05-07T03:16:21;79.45;;;71.97;;
8017;SDS011;4054;52.666;4.770;2023-05-07T03:16:53;80.55;;;72.75;;
8017;SDS011;4054;52.666;4.770;2023-05-07T03:17:25;80.40;;;72.88;;
8017;SDS011;4054;52.666;4.770;2023-05-07T03:17:58;79.22;;;71.75;;
8017;SDS011;4054;52.666;4.770;2023-05-07T03:18:30;81.07;;;73.07;;
8017;SDS011;4054;52.666;4.770;2023-05-07T03:19:02;80.57;;;72.95;;
8017;SDS011;4054;52.666;4.770;2023-05-07T03:19:35;79.72;;;72.28;;
8017;SDS011;4054;52.666;4.770;2023-05-07T03:20:08;80.68;;;72.47;;
8017;SDS011;4054;52.666;4.770;2023-05-07T03:20:42;79.65;;;71.97;;
8017;SDS011;4054;52.666;4.770;2023-05-07T03:21:15;80.72;;;72.75;;